createdAt,value
2018-03-14T00:04:14.440Z,9.35
2018-03-14T00:09:11.736Z,9.17
2018-03-14T00:14:08.968Z,9.63
2018-03-14T00:19:06.437Z,9.27
2018-03-14T00:24:03.647Z,9.34
2018-03-14T00:29:06.254Z,9.34
2018-03-14T00:34:03.336Z,9.37
2018-03-14T00:39:04.137Z,9.06
2018-03-14T00:44:01.275Z,9.13
2018-03-14T00:49:04.590Z,9.62
2018-03-14T00:54:01.761Z,9.40
2018-03-14T00:59:06.430Z,9.91
2018-03-14T01:04:03.644Z,10.40
2018-03-14T01:09:05.000Z,10.06
2018-03-14T01:14:02.209Z,10.56
2018-03-14T01:19:02.805Z,10.99
2018-03-14T01:23:59.929Z,10.75
2018-03-14T01:29:00.241Z,10.75
2018-03-14T01:33:58.073Z,10.71
2018-03-14T01:38:59.210Z,10.83
2018-03-14T01:43:56.964Z,10.77
2018-03-14T01:48:58.013Z,10.96
2018-03-14T01:53:55.277Z,10.91
2018-03-14T01:58:56.261Z,10.81
2018-03-14T02:03:53.477Z,10.92
2018-03-14T02:08:50.801Z,10.77
2018-03-14T02:13:47.932Z,10.73
2018-03-14T02:18:48.273Z,10.65
2018-03-14T02:23:45.461Z,10.72
2018-03-14T02:28:43.844Z,10.80
2018-03-14T02:33:41.069Z,10.71
2018-03-14T02:38:43.865Z,10.78
2018-03-14T02:43:41.070Z,10.75
2018-03-14T02:48:39.558Z,10.76
2018-03-14T02:53:36.865Z,10.54
2018-03-14T02:58:37.766Z,10.41
2018-03-14T03:03:35.025Z,10.45
2018-03-14T03:08:32.552Z,10.39
2018-03-14T03:13:29.742Z,10.36
2018-03-14T03:18:28.009Z,10.53
2018-03-14T03:23:25.288Z,10.39
2018-03-14T03:28:23.736Z,10.33
2018-03-14T03:33:21.105Z,10.41
2018-03-14T03:38:19.844Z,10.37
2018-03-14T03:43:17.120Z,10.40
2018-03-14T03:48:15.436Z,10.22
2018-03-14T03:53:12.730Z,10.44
2018-03-14T03:58:11.681Z,10.33
2018-03-14T04:03:08.853Z,10.14
2018-03-14T04:08:09.616Z,10.11
2018-03-14T04:13:06.908Z,9.23
2018-03-14T04:18:05.145Z,9.23
2018-03-14T04:23:02.496Z,9.64
2018-03-14T04:28:00.757Z,10.33
2018-03-14T04:32:58.676Z,10.43
2018-03-14T04:37:59.117Z,10.29
2018-03-14T04:42:56.334Z,10.27
2018-03-14T04:47:54.621Z,10.35
2018-03-14T04:52:52.219Z,10.39
2018-03-14T04:57:50.499Z,10.54
2018-03-14T05:02:47.741Z,10.52
2018-03-14T05:07:49.543Z,10.77
2018-03-14T05:12:46.754Z,10.80
2018-03-14T05:17:45.113Z,10.99
2018-03-14T05:22:42.425Z,10.99
2018-03-14T05:27:40.780Z,11.10
2018-03-14T05:32:38.018Z,11.23
2018-03-14T05:37:39.903Z,11.28
2018-03-14T05:42:37.219Z,11.38
2018-03-14T05:47:40.098Z,11.46
2018-03-14T05:52:37.291Z,11.72
2018-03-14T05:57:34.654Z,11.79
2018-03-14T06:02:31.902Z,12.09
2018-03-14T06:07:30.317Z,12.00
2018-03-14T06:12:27.339Z,12.16
2018-03-14T06:17:29.829Z,12.24
2018-03-14T06:22:27.883Z,12.38
2018-03-14T06:27:26.398Z,12.27
2018-03-14T06:32:23.635Z,12.24
2018-03-14T06:37:24.712Z,12.62
2018-03-14T06:42:24.140Z,12.72
2018-03-14T06:47:21.464Z,12.75
2018-03-14T06:52:19.302Z,12.74
2018-03-14T06:57:16.925Z,13.19
2018-03-14T07:02:32.053Z,13.44
2018-03-14T07:07:30.493Z,13.30
2018-03-14T07:12:27.827Z,13.13
2018-03-14T07:17:26.151Z,13.09
2018-03-14T07:22:23.281Z,13.70
2018-03-14T07:27:21.686Z,13.81
2018-03-14T07:32:18.954Z,13.64
2018-03-14T07:37:19.786Z,13.80
2018-03-14T07:42:16.989Z,13.83
2018-03-14T07:47:17.490Z,13.93
2018-03-14T07:52:14.802Z,13.80
2018-03-14T07:57:12.138Z,13.77
2018-03-14T08:02:09.521Z,14.54
2018-03-14T08:07:08.099Z,14.14
2018-03-14T08:21:18.925Z,15.35
2018-03-14T08:26:21.397Z,14.72
2018-03-14T08:31:18.720Z,15.10
2018-03-14T08:36:16.122Z,14.97
2018-03-14T08:41:13.986Z,15.29
2018-03-14T08:46:16.610Z,15.13
2018-03-14T08:51:14.965Z,15.26
2018-03-14T08:56:13.355Z,16.06
2018-03-14T09:01:10.592Z,15.64
2018-03-14T09:06:11.378Z,15.85
2018-03-14T09:11:08.471Z,16.32
2018-03-14T09:16:08.849Z,17.10
2018-03-14T09:21:06.005Z,17.31
2018-03-14T09:26:11.049Z,16.28
2018-03-14T09:31:08.349Z,15.47
2018-03-14T09:36:09.640Z,16.95
2018-03-14T09:41:06.899Z,16.80
2018-03-14T09:46:04.163Z,17.61
2018-03-14T09:51:01.306Z,17.20
2018-03-14T09:56:00.304Z,16.98
2018-03-14T10:00:57.426Z,17.97
2018-03-14T10:05:58.701Z,16.85
2018-03-14T10:10:55.928Z,17.22
2018-03-14T10:15:56.964Z,17.68
2018-03-14T10:20:54.205Z,17.55
2018-03-14T10:25:58.440Z,18.38
2018-03-14T10:30:55.589Z,17.51
2018-03-14T10:35:56.650Z,17.73
2018-03-14T10:40:53.876Z,17.28
2018-03-14T10:46:03.686Z,17.84
2018-03-14T10:51:01.306Z,18.30
2018-03-14T10:56:02.533Z,17.34
2018-03-14T11:01:05.813Z,19.09
2018-03-14T11:06:09.830Z,19.23
2018-03-14T11:11:07.618Z,17.57
2018-03-14T11:16:08.561Z,19.19
2018-03-14T11:21:05.726Z,19.38
2018-03-14T11:26:09.358Z,20.01
2018-03-14T11:31:06.461Z,18.40
2018-03-14T11:36:06.807Z,18.35
2018-03-14T11:41:04.056Z,18.68
2018-03-14T11:46:07.861Z,19.83
2018-03-14T11:51:05.182Z,19.38
2018-03-14T11:56:03.854Z,20.24
2018-03-14T12:01:01.036Z,19.07
2018-03-14T12:06:02.197Z,19.18
2018-03-14T12:11:00.119Z,20.13
2018-03-14T12:15:57.273Z,19.35
2018-03-14T12:20:54.588Z,18.92
2018-03-14T12:25:55.801Z,18.64
2018-03-14T12:30:53.811Z,17.58
2018-03-14T12:35:52.133Z,15.49
2018-03-14T12:40:49.378Z,15.39
2018-03-14T12:45:51.022Z,15.64
2018-03-14T12:50:48.322Z,16.21
2018-03-14T12:55:50.570Z,15.93
2018-03-14T13:00:48.450Z,16.15
2018-03-14T13:05:48.945Z,15.60
2018-03-14T13:10:46.244Z,15.80
2018-03-14T13:15:44.449Z,15.89
2018-03-14T13:20:41.702Z,15.58
2018-03-14T13:25:42.076Z,15.98
2018-03-14T13:30:39.322Z,16.07
2018-03-14T13:35:40.753Z,15.99
2018-03-14T13:40:38.058Z,16.17
2018-03-14T13:45:39.802Z,16.17
2018-03-14T13:50:37.144Z,17.54
2018-03-14T13:55:38.172Z,16.08
2018-03-14T14:00:35.456Z,15.20
2018-03-14T14:05:38.890Z,15.22
2018-03-14T14:10:36.098Z,15.68
2018-03-14T14:15:33.337Z,17.04
2018-03-14T14:20:30.467Z,17.79
2018-03-14T14:25:31.529Z,17.15
2018-03-14T14:30:28.701Z,16.47
2018-03-14T14:35:26.927Z,16.77
2018-03-14T14:40:25.303Z,16.62
2018-03-14T14:45:32.821Z,17.26
2018-03-14T14:50:30.078Z,17.50
2018-03-14T14:55:32.737Z,17.16
2018-03-14T15:00:30.037Z,16.81
2018-03-14T15:05:28.442Z,16.84
2018-03-14T15:10:25.745Z,16.20
2018-03-14T15:15:24.223Z,16.09
2018-03-14T15:20:21.477Z,15.95
2018-03-14T15:25:24.419Z,15.77
2018-03-14T15:30:21.563Z,15.95
2018-03-14T15:35:26.872Z,15.80
2018-03-14T15:40:24.017Z,15.67
2018-03-14T15:45:24.883Z,15.59
2018-03-14T15:50:22.191Z,15.18
2018-03-14T15:55:21.217Z,15.05
2018-03-14T16:00:18.459Z,14.63
2018-03-14T16:05:25.757Z,14.70
2018-03-14T16:10:22.946Z,14.57
2018-03-14T16:15:30.625Z,14.11
2018-03-14T16:20:27.813Z,14.31
2018-03-14T16:25:29.555Z,14.07
2018-03-14T16:30:26.893Z,14.10
2018-03-14T16:35:30.670Z,14.05
2018-03-14T16:40:27.881Z,14.13
2018-03-14T16:45:31.198Z,13.98
2018-03-14T16:50:28.343Z,14.12
2018-03-14T16:55:29.519Z,13.87
2018-03-14T17:00:26.884Z,14.17
2018-03-14T17:05:28.315Z,14.30
2018-03-14T17:10:25.648Z,13.68
2018-03-14T17:15:23.927Z,12.90
2018-03-14T17:20:21.184Z,12.69
2018-03-14T17:25:22.598Z,12.70
2018-03-14T17:30:19.514Z,12.09
2018-03-14T17:35:18.853Z,11.47
2018-03-14T17:40:16.215Z,11.66
2018-03-14T17:45:16.981Z,11.91
2018-03-14T17:50:14.346Z,12.30
2018-03-14T17:55:22.286Z,12.15
2018-03-14T18:00:19.637Z,11.90
2018-03-14T18:05:18.047Z,11.89
2018-03-14T18:10:15.212Z,11.64
2018-03-14T18:15:15.998Z,11.67
2018-03-14T18:20:13.352Z,11.77
2018-03-14T18:25:18.353Z,11.72
2018-03-14T18:30:16.123Z,14.01
2018-03-14T18:35:17.000Z,15.00
2018-03-14T18:40:15.106Z,14.43
2018-03-14T18:45:17.130Z,14.86
2018-03-14T18:50:14.228Z,13.70
2018-03-14T18:55:15.055Z,11.84
2018-03-14T19:00:12.210Z,11.86
2018-03-14T19:05:13.348Z,11.68
2018-03-14T19:10:10.803Z,11.67
2018-03-14T19:15:14.868Z,11.08
2018-03-14T19:20:12.540Z,11.13
2018-03-14T19:25:20.205Z,11.56
2018-03-14T19:30:17.406Z,11.20
2018-03-14T19:35:18.278Z,11.30
2018-03-14T19:40:16.380Z,11.22
2018-03-14T19:45:21.153Z,10.96
2018-03-14T19:50:18.464Z,10.89
2018-03-14T19:55:16.686Z,11.15
2018-03-14T20:00:14.214Z,10.91
2018-03-14T20:05:11.704Z,10.60
2018-03-14T20:10:08.863Z,11.28
2018-03-14T20:15:09.243Z,11.72
2018-03-14T20:20:08.169Z,11.57
2018-03-14T20:25:09.465Z,12.13
2018-03-14T20:35:25.276Z,11.72
2018-03-14T20:40:22.647Z,11.97
2018-03-14T20:45:20.090Z,12.20
2018-03-14T20:50:17.582Z,11.82
2018-03-14T20:55:18.467Z,11.75
2018-03-14T21:00:15.757Z,11.60
2018-03-14T21:05:13.058Z,11.28
2018-03-14T21:10:10.742Z,11.21
2018-03-14T21:15:14.566Z,10.84
2018-03-14T21:20:12.673Z,10.80
2018-03-14T21:25:14.850Z,11.12
2018-03-14T21:30:12.018Z,10.88
2018-03-14T21:35:12.644Z,10.85
2018-03-14T21:40:09.993Z,10.52
2018-03-14T21:45:11.481Z,10.51
2018-03-14T21:50:08.887Z,10.46
2018-03-14T21:55:09.428Z,10.36
2018-03-14T22:00:06.685Z,10.67
2018-03-14T22:05:10.003Z,10.63
2018-03-14T22:10:08.093Z,10.22
2018-03-14T22:15:06.552Z,10.17
2018-03-14T22:20:03.765Z,10.09
2018-03-14T22:25:04.666Z,10.31
2018-03-14T22:30:02.031Z,9.76
2018-03-14T22:35:00.461Z,9.94
2018-03-14T22:39:57.790Z,9.99
2018-03-14T22:44:59.544Z,9.69
2018-03-14T22:49:57.672Z,9.92
2018-03-14T22:55:01.548Z,10.19
2018-03-14T22:59:58.846Z,9.86
2018-03-14T23:05:02.011Z,9.70
2018-03-14T23:09:59.278Z,9.67
2018-03-14T23:15:00.282Z,9.74
2018-03-14T23:19:57.496Z,9.91
2018-03-14T23:24:55.837Z,9.93
2018-03-14T23:29:52.983Z,9.89
2018-03-14T23:34:57.117Z,9.41
2018-03-14T23:39:54.394Z,9.52
2018-03-14T23:44:52.632Z,9.54
2018-03-14T23:49:49.737Z,9.53
2018-03-14T23:54:50.358Z,9.44
2018-03-14T23:59:47.573Z,9.37
